Time;durP1;ratioP1;P1;durP2;ratioP2;P2;SDS_P1;SDS_P2;PMS_P1;PMS_P2;Temp;Humidity;BMP_temperature;BMP_pressure;BME280_temperature;BME280_humidity;BME280_pressure;Samples;Min_cycle;Max_cycle;Signal;HPM_P1;HPM_P2
2022/11/04 00:00:52;;;;;;;30.70;15.50;;;;;;;18.85;39.89;100882.45;104888;1291;70030;-91
2022/11/04 00:03:18;;;;;;;28.20;16.00;;;;;;;18.85;39.92;100881.76;104782;1295;69952;-91
2022/11/04 00:05:43;;;;;;;27.00;15.60;;;;;;;18.85;39.90;100879.92;104974;1292;70055;-92
2022/11/04 00:08:24;;;;;;;28.40;16.00;;;;;;;18.84;39.92;100876.30;104882;1286;69967;-92
2022/11/04 00:13:38;;;;;;;25.90;15.40;;;;;;;18.81;39.97;100876.86;105033;1288;74366;-91
2022/11/04 00:18:48;;;;;;;27.90;14.80;;;;;;;18.80;39.93;100874.24;105155;1295;72565;-91
2022/11/04 00:29:26;;;;;;;27.60;15.40;;;;;;;18.80;39.84;100862.66;105355;1293;82633;-91
2022/11/04 00:34:36;;;;;;;25.70;15.50;;;;;;;18.79;39.87;100851.08;106617;1294;67331;-91
2022/11/04 00:37:02;;;;;;;24.90;14.60;;;;;;;18.78;39.88;100849.19;106721;1284;67491;-91
2022/11/04 00:39:28;;;;;;;25.50;14.80;;;;;;;18.79;39.82;100849.50;106358;1287;70034;-91
2022/11/04 00:41:53;;;;;;;26.80;14.30;;;;;;;18.79;39.79;100845.89;105870;1288;69756;-91
2022/11/04 00:44:19;;;;;;;24.60;14.60;;;;;;;18.80;39.72;100845.43;105521;1293;70036;-91
2022/11/04 00:46:44;;;;;;;24.30;14.60;;;;;;;18.81;39.76;100846.76;105379;1287;70358;-91
2022/11/04 00:51:38;;;;;;;23.80;14.50;;;;;;;18.79;39.53;100846.39;105582;1290;83147;-92
2022/11/04 00:54:08;;;;;;;22.90;14.50;;;;;;;18.79;39.68;100844.66;105284;1282;69997;-91
2022/11/04 00:56:38;;;;;;;21.30;14.40;;;;;;;18.79;39.78;100842.98;105286;1294;68172;-91
2022/11/04 00:59:03;;;;;;;23.10;14.20;;;;;;;18.79;39.47;100843.89;105218;1288;69991;-91
2022/11/04 01:01:37;;;;;;;23.50;14.80;;;;;;;18.78;39.64;100840.47;105270;1293;67621;31
2022/11/04 01:06:46;;;;;;;25.90;15.30;;;;;;;18.77;39.47;100835.01;105171;1287;72387;-91
2022/11/04 01:09:11;;;;;;;26.90;14.70;;;;;;;18.77;39.49;100829.64;105304;1282;70024;-91
2022/11/04 01:11:37;;;;;;;29.90;15.20;;;;;;;18.76;39.38;100825.71;105313;1291;67665;-91
2022/11/04 01:14:03;;;;;;;22.70;14.50;;;;;;;18.76;39.40;100825.15;105403;1287;70030;-91
2022/11/04 01:16:51;;;;;;;22.80;14.70;;;;;;;18.75;39.42;100821.82;105755;1294;70012;-92
2022/11/04 01:19:37;;;;;;;24.50;15.30;;;;;;;18.75;39.46;100822.39;105599;1288;69906;-91
2022/11/04 01:24:42;;;;;;;23.80;14.00;;;;;;;18.74;39.47;100816.25;107046;1285;72088;-92
2022/11/04 01:27:16;;;;;;;24.80;15.20;;;;;;;18.74;39.43;100813.71;106811;1290;66992;-92
2022/11/04 01:32:33;;;;;;;22.20;14.30;;;;;;;18.74;39.42;100810.48;107337;1283;67696;-92
2022/11/04 01:34:58;;;;;;;24.90;14.70;;;;;;;18.74;39.51;100812.02;106814;1284;67358;-91
2022/11/04 01:37:32;;;;;;;24.70;14.00;;;;;;;18.74;39.32;100807.23;105827;1286;70098;-91
2022/11/04 01:42:27;;;;;;;25.30;14.60;;;;;;;18.74;39.40;100798.47;105594;1278;73388;-92
2022/11/04 01:45:00;;;;;;;24.40;14.90;;;;;;;18.74;39.23;100796.27;106930;1288;67061;-92
2022/11/04 01:47:33;;;;;;;24.30;14.70;;;;;;;18.74;39.25;100792.48;105959;1289;70301;-92
2022/11/04 01:50:08;;;;;;;24.10;14.80;;;;;;;18.73;39.37;100791.66;105426;1280;75363;-92
2022/11/04 01:53:20;;;;;;;25.50;15.10;;;;;;;18.73;39.36;100793.34;105193;1291;82703;-92
2022/11/04 01:55:52;;;;;;;21.80;15.30;;;;;;;18.72;39.32;100789.40;105224;1286;72500;-92
2022/11/04 01:58:24;;;;;;;21.70;14.50;;;;;;;18.72;39.30;100789.80;105303;1281;69976;-91
2022/11/04 02:03:43;;;;;;;27.10;15.50;;;;;;;18.70;39.21;100780.20;105128;1293;73180;-92
2022/11/04 02:06:09;;;;;;;27.30;14.30;;;;;;;18.69;39.21;100778.56;105449;1288;82860;-92
2022/11/04 02:08:34;;;;;;;22.50;14.40;;;;;;;18.69;39.11;100775.64;105297;1291;69996;-91
2022/11/04 02:11:01;;;;;;;27.70;15.20;;;;;;;18.69;39.13;100774.37;105340;1294;70006;-91
2022/11/04 02:13:27;;;;;;;24.50;15.70;;;;;;;18.68;39.04;100771.90;105143;1290;68532;-91
2022/11/04 02:18:42;;;;;;;25.10;14.10;;;;;;;18.66;39.02;100772.00;105039;1291;79867;-91
2022/11/04 02:21:26;;;;;;;25.00;14.70;;;;;;;18.65;38.99;100770.30;105326;1285;72443;-91
2022/11/04 02:24:04;;;;;;;23.00;14.10;;;;;;;18.64;39.13;100771.30;105486;1294;68069;-91
2022/11/04 02:26:56;;;;;;;20.60;14.40;;;;;;;18.63;39.06;100768.08;105424;1277;69920;-91
2022/11/04 02:29:24;;;;;;;22.60;14.20;;;;;;;18.63;38.96;100765.78;105498;1284;74418;-91
2022/11/04 02:32:02;;;;;;;23.40;14.80;;;;;;;18.62;38.94;100765.76;105505;1294;82833;-92
2022/11/04 02:34:52;;;;;;;23.60;15.10;;;;;;;18.62;38.99;100765.61;105217;1294;72446;-91
2022/11/04 02:37:34;;;;;;;22.80;14.70;;;;;;;18.60;39.04;100761.30;105410;1279;67675;-92
2022/11/04 02:43:40;;;;;;;23.00;14.60;;;;;;;18.60;39.06;100762.17;106058;1292;74882;31
2022/11/04 02:52:09;;;;;;;23.10;14.50;;;;;;;18.58;39.08;100757.55;106124;1291;68018;-91
2022/11/04 02:57:15;;;;;;;24.40;13.70;;;;;;;18.58;39.11;100755.48;105562;1277;75305;-91
2022/11/04 03:02:42;;;;;;;24.20;15.20;;;;;;;18.58;38.99;100750.93;105785;1287;71190;-91
2022/11/04 03:05:10;;;;;;;25.00;14.60;;;;;;;18.58;39.01;100748.53;105505;1282;69522;-91
2022/11/04 03:07:40;;;;;;;23.60;14.80;;;;;;;18.58;39.08;100747.65;105259;1286;69785;-91
2022/11/04 03:10:16;;;;;;;22.30;14.90;;;;;;;18.57;39.06;100744.55;105562;1290;73226;-90
2022/11/04 03:15:10;;;;;;;27.30;15.50;;;;;;;18.57;38.93;100737.86;105480;1285;67885;-91
2022/11/04 03:17:51;;;;;;;23.70;15.10;;;;;;;18.56;39.17;100728.94;105502;1294;68342;-91
2022/11/04 03:20:30;;;;;;;23.30;14.50;;;;;;;18.57;39.08;100737.05;105517;1281;68168;-92
2022/11/04 03:23:00;;;;;;;24.50;15.10;;;;;;;18.56;39.02;100735.81;105362;1281;74340;-91
2022/11/04 03:25:36;;;;;;;26.50;15.90;;;;;;;18.55;39.01;100730.65;105547;1290;83010;-91
2022/11/04 03:28:17;;;;;;;25.80;15.60;;;;;;;18.56;39.12;100730.40;105330;1284;73145;-92
2022/11/04 03:30:47;;;;;;;23.60;15.80;;;;;;;18.55;39.02;100730.50;104837;1289;69926;31
2022/11/04 03:33:20;;;;;;;23.70;15.90;;;;;;;18.55;39.05;100727.64;105274;1290;70061;-91
2022/11/04 03:35:45;;;;;;;28.70;15.30;;;;;;;18.54;38.99;100721.36;105341;1290;74380;-92
2022/11/04 03:38:11;;;;;;;25.30;15.20;;;;;;;18.54;39.05;100719.94;105352;1287;70047;-92
2022/11/04 03:40:36;;;;;;;24.10;15.20;;;;;;;18.53;39.03;100717.38;105251;1295;68644;-91
2022/11/04 03:43:14;;;;;;;24.90;15.20;;;;;;;18.53;39.03;100712.54;105284;1290;69956;-92
2022/11/04 03:45:46;;;;;;;28.30;14.70;;;;;;;18.53;38.88;100713.10;105207;1297;70079;31
2022/11/04 03:48:12;;;;;;;27.00;15.40;;;;;;;18.52;38.96;100710.34;105381;1284;74398;-92
2022/11/04 03:50:46;;;;;;;25.80;15.50;;;;;;;18.52;38.94;100706.82;105640;1290;70101;-92
2022/11/04 03:53:12;;;;;;;14.80;10.80;;;;;;;18.52;39.06;100705.73;105380;1288;72878;-91
2022/11/04 03:59:20;;;;;;;40.90;14.00;;;;;;;18.57;39.89;100703.41;105591;1287;69956;-91
2022/11/04 04:01:50;;;;;;;37.70;15.30;;;;;;;18.60;40.23;100698.77;105467;1291;75591;-92
2022/11/04 04:04:31;;;;;;;34.20;15.30;;;;;;;18.61;40.42;100702.36;105495;1293;82998;-91
2022/11/04 04:07:29;;;;;;;36.70;15.00;;;;;;;18.63;40.46;100702.98;105373;1288;72561;-91
2022/11/04 04:13:22;;;;;;;26.50;14.70;;;;;;;18.64;40.66;100711.41;105555;1285;70727;-92
2022/11/04 04:15:58;;;;;;;26.20;14.40;;;;;;;18.63;40.65;100711.08;105513;1292;75408;-91
2022/11/04 04:18:33;;;;;;;27.70;14.90;;;;;;;18.63;40.52;100713.73;106216;1287;82780;-91
2022/11/04 04:21:03;;;;;;;28.80;14.60;;;;;;;18.62;40.46;100716.13;106433;1290;71266;-91
2022/11/04 05:29:45;;;;;;;25.30;16.70;;;;;;;18.59;40.01;100710.27;106303;1277;73592;31
2022/11/04 05:32:14;;;;;;;29.30;16.40;;;;;;;18.60;39.88;100712.36;106367;1290;82915;-92
2022/11/04 05:40:42;;;;;;;31.40;16.40;;;;;;;18.59;39.75;100720.27;106464;1287;67346;-92
2022/11/04 06:20:09;;;;;;;25.10;14.80;;;;;;;18.75;40.39;100715.22;106478;1276;67853;31
2022/11/04 06:28:42;;;;;;;23.70;14.60;;;;;;;18.71;40.20;100717.52;106319;1288;80260;-91
2022/11/04 06:34:00;;;;;;;26.30;15.50;;;;;;;18.75;40.34;100720.42;105533;1271;1440685;-93
2022/11/04 06:39:19;;;;;;;31.90;17.10;;;;;;;18.77;40.29;100722.34;106249;1290;73464;-91
2022/11/04 06:41:45;;;;;;;32.40;18.60;;;;;;;18.76;40.09;100716.52;105493;1285;81654;-91
2022/11/04 06:44:16;;;;;;;37.60;17.50;;;;;;;18.76;40.13;100719.99;106153;1289;67337;-91
2022/11/04 06:46:46;;;;;;;32.60;18.10;;;;;;;18.75;40.04;100721.98;106033;1274;67681;-91
2022/11/04 07:20:04;;;;;;;31.10;18.80;;;;;;;18.89;40.29;100699.14;106292;1282;70562;-92
2022/11/04 07:55:38;;;;;;;30.40;18.20;;;;;;;18.93;40.12;100659.88;106440;1278;73206;-92
2022/11/04 08:13:02;;;;;;;34.10;18.70;;;;;;;18.96;40.45;100647.49;106628;1276;80603;-90
2022/11/04 08:34:01;;;;;;;29.90;16.50;;;;;;;18.99;40.53;100631.11;106124;1288;68249;-91
2022/11/04 08:36:35;;;;;;;30.70;16.00;;;;;;;19.00;40.52;100626.17;106096;1291;69821;-93
2022/11/04 08:54:17;;;;;;;23.10;14.60;;;;;;;19.02;40.67;100598.20;106570;1276;75169;-91
2022/11/04 08:56:42;;;;;;;26.70;15.40;;;;;;;19.02;40.69;100598.76;106060;1287;81652;-91
2022/11/04 08:59:09;;;;;;;25.40;14.70;;;;;;;19.04;40.89;100600.40;105569;1294;70094;-90
2022/11/04 09:01:35;;;;;;;31.70;14.80;;;;;;;19.05;40.93;100596.44;105952;1283;67759;-92
2022/11/04 09:04:00;;;;;;;34.00;16.40;;;;;;;19.08;40.79;100593.46;106014;1286;70009;-91
2022/11/04 09:12:12;;;;;;;26.50;16.50;;;;;;;19.13;40.87;100596.02;106834;1280;72428;-91
2022/11/04 09:26:53;;;;;;;31.00;17.30;;;;;;;19.15;41.17;100588.02;106673;1282;72676;-92
2022/11/04 09:34:50;;;;;;;30.70;17.70;;;;;;;19.15;41.40;100571.19;106817;1284;73185;-92
2022/11/04 09:37:22;;;;;;;33.70;18.00;;;;;;;19.15;41.28;100568.89;106378;1281;82781;-93
2022/11/04 09:40:00;;;;;;;28.70;16.80;;;;;;;19.13;41.42;100565.25;106592;1284;72941;-93
2022/11/04 09:51:19;;;;;;;28.90;16.10;;;;;;;19.14;41.34;100549.77;106654;1285;79944;-92
2022/11/04 10:03:17;;;;;;;27.50;14.90;;;;;;;19.19;41.36;100542.25;106865;1285;73438;31
2022/11/04 18:56:19;;;;;;;25.40;14.40;;;;;;;19.04;41.57;100182.23;104121;1286;1433799;-90
2022/11/04 18:58:50;;;;;;;25.50;14.50;;;;;;;19.04;41.54;100182.59;104950;1288;67755;-89
2022/11/04 19:01:25;;;;;;;23.70;15.30;;;;;;;19.05;41.62;100183.42;105280;1286;75108;-91
2022/11/04 19:03:50;;;;;;;25.30;15.30;;;;;;;19.06;41.60;100183.48;105298;1288;82940;-88
2022/11/04 19:06:19;;;;;;;28.20;15.70;;;;;;;19.06;41.58;100176.85;104677;1285;70050;-92
2022/11/04 19:08:46;;;;;;;24.80;15.00;;;;;;;19.07;41.59;100175.48;104454;1293;69865;-88
2022/11/04 19:11:19;;;;;;;26.00;14.90;;;;;;;19.07;41.65;100172.56;104750;1286;70008;-87
2022/11/04 19:13:53;;;;;;;30.50;15.90;;;;;;;19.07;41.46;100174.71;104690;1290;74388;-88
2022/11/04 19:16:18;;;;;;;29.60;15.70;;;;;;;19.08;41.48;100173.80;104635;1294;82748;-88
2022/11/04 19:18:46;;;;;;;31.90;15.70;;;;;;;19.08;41.56;100178.42;104540;1294;70009;-89
2022/11/04 19:21:12;;;;;;;26.60;16.10;;;;;;;19.08;41.48;100175.88;104335;1289;70023;-92
2022/11/04 19:23:37;;;;;;;26.00;15.40;;;;;;;19.07;41.51;100179.50;104029;1293;70162;-88
2022/11/04 19:26:16;;;;;;;25.30;15.40;;;;;;;19.07;41.51;100179.15;104540;1294;71551;-87
2022/11/04 19:28:43;;;;;;;33.90;16.00;;;;;;;19.07;41.51;100178.54;104975;1291;82976;-91
2022/11/04 19:31:24;;;;;;;26.60;15.70;;;;;;;19.07;41.57;100184.85;105067;1290;68340;-90
2022/11/04 19:33:50;;;;;;;28.30;15.60;;;;;;;19.06;41.62;100182.10;104964;1294;69817;-90
2022/11/04 19:36:16;;;;;;;23.80;15.20;;;;;;;19.06;41.57;100181.08;104695;1293;70028;-90
2022/11/04 19:38:42;;;;;;;33.20;15.70;;;;;;;19.06;41.55;100183.77;104733;1291;70012;-90
2022/11/04 19:43:57;;;;;;;25.30;14.80;;;;;;;19.07;41.61;100183.59;105057;1288;73221;-90
2022/11/04 19:46:23;;;;;;;27.10;15.30;;;;;;;19.06;41.62;100185.31;105016;1294;70022;-90
2022/11/04 19:48:51;;;;;;;24.50;15.40;;;;;;;19.07;41.55;100186.28;104906;1295;70113;-89
2022/11/04 19:51:17;;;;;;;32.20;16.00;;;;;;;19.06;41.58;100189.34;105017;1271;75364;-90
2022/11/04 19:53:42;;;;;;;24.00;15.20;;;;;;;19.07;41.63;100191.34;104687;1295;70015;-90
2022/11/04 19:56:12;;;;;;;25.10;15.40;;;;;;;19.07;41.62;100193.21;104925;1288;69962;-90
2022/11/04 19:58:37;;;;;;;31.60;16.20;;;;;;;19.07;41.64;100195.16;105090;1287;70016;-90
2022/11/04 20:01:04;;;;;;;26.30;16.30;;;;;;;19.08;41.52;100198.17;104904;1287;69982;-89
2022/11/04 20:03:29;;;;;;;28.30;15.80;;;;;;;19.07;41.65;100193.46;105147;1291;69909;-90
2022/11/04 20:08:37;;;;;;;31.20;16.70;;;;;;;19.07;41.66;100190.11;104778;1294;73417;-90
2022/11/04 20:11:04;;;;;;;27.40;16.20;;;;;;;19.07;41.57;100187.16;105072;1295;69881;-90
2022/11/04 20:13:48;;;;;;;24.70;15.60;;;;;;;19.07;41.68;100180.67;105117;1285;70615;-89
2022/11/04 20:16:16;;;;;;;28.30;16.50;;;;;;;19.07;41.68;100184.05;104980;1291;75347;-90
2022/11/04 20:21:33;;;;;;;26.20;16.10;;;;;;;19.06;41.72;100186.64;105732;1284;71652;-90
2022/11/04 20:24:24;;;;;;;29.80;16.00;;;;;;;19.06;41.66;100188.77;105048;1287;70057;31
2022/11/04 20:29:28;;;;;;;30.90;16.40;;;;;;;19.06;41.70;100197.40;104896;1285;74399;-91
2022/11/04 20:31:54;;;;;;;25.80;15.90;;;;;;;19.06;41.60;100201.73;104978;1287;70091;-90
2022/11/04 20:34:19;;;;;;;31.70;17.00;;;;;;;19.06;41.72;100196.67;104816;1290;68557;-90
2022/11/04 20:36:45;;;;;;;25.50;16.00;;;;;;;19.06;41.63;100191.59;105038;1294;70026;-90
2022/11/04 20:39:16;;;;;;;25.50;15.90;;;;;;;19.06;41.60;100191.64;105429;1287;70059;-89
2022/11/04 20:44:15;;;;;;;29.90;17.10;;;;;;;19.06;41.79;100187.30;105229;1290;73217;-90
2022/11/04 20:46:41;;;;;;;28.00;16.20;;;;;;;19.06;41.67;100189.30;104957;1292;69989;-90
2022/11/04 20:49:07;;;;;;;29.00;15.40;;;;;;;19.07;41.66;100189.35;104887;1295;70006;-91
2022/11/04 20:51:41;;;;;;;26.10;16.10;;;;;;;19.07;41.80;100189.75;104979;1285;69854;-89
2022/11/04 20:54:06;;;;;;;27.00;16.40;;;;;;;19.07;41.66;100191.02;105032;1292;82363;-90
2022/11/04 20:56:34;;;;;;;26.50;16.00;;;;;;;19.06;41.60;100188.88;104753;1295;70127;-90
2022/11/04 20:58:59;;;;;;;31.60;16.60;;;;;;;19.06;41.72;100189.39;104980;1294;69829;-90
2022/11/04 21:01:35;;;;;;;26.10;15.90;;;;;;;19.06;41.72;100191.38;105027;1288;70073;-90
2022/11/04 21:04:03;;;;;;;28.20;16.40;;;;;;;19.06;41.71;100189.95;104995;1289;73889;-90
2022/11/04 21:06:29;;;;;;;31.50;16.60;;;;;;;19.06;41.62;100184.44;104889;1297;82887;-90
2022/11/04 21:08:57;;;;;;;27.30;16.70;;;;;;;19.06;41.75;100183.89;104829;1292;69879;-90
2022/11/04 21:11:22;;;;;;;27.10;16.90;;;;;;;19.06;41.76;100181.39;104441;1290;69948;-90
2022/11/04 21:13:47;;;;;;;34.90;17.80;;;;;;;19.04;41.72;100178.77;104980;1281;70106;-90
2022/11/04 21:16:13;;;;;;;28.30;17.60;;;;;;;19.05;41.71;100182.45;104713;1281;70055;-90
2022/11/04 21:18:39;;;;;;;28.70;18.50;;;;;;;19.05;41.63;100178.07;104953;1281;70010;-90
2022/11/04 21:21:06;;;;;;;34.20;18.10;;;;;;;19.04;41.71;100176.69;104859;1281;70539;-90
2022/11/04 21:23:32;;;;;;;28.40;17.60;;;;;;;19.05;41.69;100178.13;104595;1290;69938;-90
2022/11/04 21:26:08;;;;;;;32.00;17.80;;;;;;;19.04;41.67;100175.10;104726;1288;70063;-89
2022/11/04 21:28:34;;;;;;;31.70;18.20;;;;;;;19.04;41.77;100173.32;105009;1289;83088;-90
2022/11/04 21:31:04;;;;;;;27.20;18.60;;;;;;;19.04;41.68;100169.76;104896;1294;69995;-90
2022/11/04 21:33:30;;;;;;;34.30;19.20;;;;;;;19.04;41.69;100167.98;104793;1281;69841;-89
2022/11/04 21:35:55;;;;;;;29.00;18.00;;;;;;;19.04;41.71;100167.90;104748;1290;69981;-89
2022/11/04 21:38:22;;;;;;;33.30;19.50;;;;;;;19.04;41.57;100163.43;104463;1294;70241;-90
2022/11/04 21:40:47;;;;;;;31.20;18.50;;;;;;;19.04;41.65;100167.50;104843;1288;69871;-90
2022/11/04 21:43:13;;;;;;;28.90;18.90;;;;;;;19.03;41.73;100167.30;105202;1293;70084;-90
2022/11/04 21:45:38;;;;;;;32.50;18.90;;;;;;;19.02;41.71;100166.48;104733;1295;70024;-89
2022/11/04 21:48:04;;;;;;;31.40;19.40;;;;;;;19.02;41.69;100163.11;104843;1282;70143;-90
2022/11/04 21:53:00;;;;;;;32.90;19.00;;;;;;;19.02;41.73;100156.48;104783;1285;73288;-90
2022/11/04 21:55:26;;;;;;;33.60;20.00;;;;;;;19.02;41.65;100158.27;104923;1287;70036;-90
2022/11/04 21:57:51;;;;;;;29.90;19.80;;;;;;;19.02;41.66;100165.56;104713;1294;69993;-90
2022/11/04 22:00:17;;;;;;;34.90;19.90;;;;;;;19.02;41.68;100163.53;104970;1296;69897;-90
2022/11/04 22:02:49;;;;;;;32.30;20.00;;;;;;;19.02;41.67;100160.77;104915;1276;70571;-90
2022/11/04 22:05:15;;;;;;;35.70;20.30;;;;;;;19.01;41.68;100163.67;104803;1287;69937;-90
2022/11/04 22:10:25;;;;;;;30.70;19.50;;;;;;;19.00;41.70;100154.66;104991;1284;74290;-90
2022/11/04 22:12:50;;;;;;;37.40;20.20;;;;;;;19.00;41.58;100156.49;104804;1288;69976;-89
2022/11/04 22:18:01;;;;;;;38.30;19.50;;;;;;;18.98;41.61;100160.60;105036;1293;69960;-90
2022/11/04 22:22:54;;;;;;;33.20;19.90;;;;;;;18.99;41.67;100161.54;105100;1278;69860;-90
2022/11/04 22:25:19;;;;;;;40.90;20.30;;;;;;;18.98;41.71;100160.62;105122;1288;68326;-90
2022/11/04 22:27:45;;;;;;;30.30;19.60;;;;;;;18.98;41.66;100157.34;104885;1281;70151;-90
2022/11/04 22:30:11;;;;;;;31.60;20.50;;;;;;;18.98;41.81;100155.71;105055;1286;70074;-90
2022/11/04 22:32:41;;;;;;;32.50;19.50;;;;;;;18.98;41.65;100155.25;104875;1285;70223;-90
2022/11/04 22:35:07;;;;;;;32.20;20.40;;;;;;;18.98;41.69;100154.95;104566;1290;83735;-90
2022/11/04 22:37:32;;;;;;;37.50;20.50;;;;;;;18.97;41.74;100145.46;105800;1285;68255;-90
2022/11/04 22:39:58;;;;;;;37.00;20.20;;;;;;;18.97;41.77;100146.18;105456;1288;70005;-91
2022/11/04 22:42:23;;;;;;;29.80;19.50;;;;;;;18.96;41.66;100143.73;105061;1295;70006;-89
2022/11/04 22:44:49;;;;;;;30.70;20.10;;;;;;;18.97;41.64;100142.50;104963;1279;68633;-89
2022/11/04 22:49:58;;;;;;;35.80;20.30;;;;;;;18.97;41.70;100137.31;104831;1297;70015;-90
2022/11/04 22:52:24;;;;;;;35.60;21.10;;;;;;;18.97;41.70;100135.86;104923;1288;70102;-89
2022/11/04 22:54:53;;;;;;;37.60;21.30;;;;;;;18.96;41.77;100133.83;105201;1287;69989;-90
2022/11/04 22:57:19;;;;;;;34.90;20.90;;;;;;;18.96;41.85;100132.40;104962;1282;83281;-89
2022/11/04 22:59:45;;;;;;;31.00;20.30;;;;;;;18.96;41.77;100134.09;104957;1288;68140;-90
2022/11/04 23:02:10;;;;;;;33.00;20.80;;;;;;;18.95;41.66;100131.88;104491;1294;70041;-90
2022/11/04 23:04:36;;;;;;;39.30;20.80;;;;;;;18.96;41.78;100136.02;104878;1295;70009;-90
2022/11/04 23:07:03;;;;;;;36.50;21.90;;;;;;;18.95;41.76;100135.66;105009;1285;68632;-89
2022/11/04 23:09:30;;;;;;;34.00;21.30;;;;;;;18.95;41.73;100128.36;105101;1288;69957;-90
2022/11/04 23:19:42;;;;;;;32.50;20.20;;;;;;;18.94;41.72;100121.77;104926;1283;75343;-90
2022/11/04 23:25:04;;;;;;;32.00;20.80;;;;;;;18.92;41.79;100124.98;105060;1293;71492;-91
2022/11/04 23:30:20;;;;;;;35.00;19.90;;;;;;;18.91;41.85;100129.87;105092;1285;69852;-90
2022/11/04 23:33:16;;;;;;;32.40;18.90;;;;;;;18.91;41.87;100131.39;105259;1288;73767;-91
2022/11/04 23:38:30;;;;;;;35.10;20.20;;;;;;;18.90;41.92;100136.07;105049;1288;73451;-90
2022/11/04 23:43:36;;;;;;;34.70;19.60;;;;;;;18.90;41.94;100135.33;104909;1287;69957;-91
